Ana Sayfa
METAR-TAF:

METAR-TAF

Havaalanları :

Bağdat Uluslararası Havaalanı

Bağdat, Irak

Enlem: 33-15-45N, Boylam: 44-14-04E, yükseklik: 35 m

Güncel hava durumu gözlemi

Rapor saat 12:00 UTC de 1 saat ve 6 dakika önce yapıldı.
Rüzgar doğu/güneydoğudan 14 kt
Sıcaklık 45°C
Nem 15%
Basınç 1003 hPa
Görüş mesafesi 10 km veya daha fazla
1500 m altında bulut yok ve kümülonimbus yok

METAR: ORBI 151200Z 12014KT CAVOK 45/12 Q1003 NOSIG

Saat: 16:06 (13:06 UTC)

Tahmin

Rapor saat 11:00 UTC de 2 saat ve 6 dakika önce yapıldı.
Ayın 15'si saat 12 UTC'den ayın 16'si saat 12 UTC'ye kadar geçerli Tahmin
Rüzgar güney/güneydoğudan 10 kt
Görüş mesafesi: 8000 m
Dönüşüyor
ayın 15'si saat 18 UTC'den ayın 15'si saat 20 UTC'ye kadar
Rüzgar batı/kuzeybatıdan 8 kt

TAF: ORBI 151100Z 1512/1612 15010KT 8000 NSC BECMG 1518/1520 30008KT

4.000'den fazla havaalanı için hava durumu gözlemleri ve tahminleri (METAR ve TAF raporları).

Kullanılabilir istasyonlar harita üzerinde sarı ve kırmızı noktalarla gösterilir.

İstasyonun adını görmek için fareyi noktanın üzerinde gezdirin.

Sonrasında hava gözlem ve tahminlerini görmek için tıklayın.

Haritayı değiştirmek için: yaklaştırmak için siyah artı işaretli yeşil düğmeye ve uzaklaştırmak için de eksi işaretli düğmeye hızla tıklayın; bitişik haritalar için yeşil okları kullanın.


METAR-TAF: